Terminal Aerodrome Forecast
Issued by NWS

Home | Current Version | Previous Version | Text Only | Print | Product List | Glossary On
Versions: 1 2 3 4 5 6 7 8 9 10 11 12 13 14 15 16
000
FTUS43 KAPX 252045 AAA
TAFPLN
TAF AMD
KPLN 252045Z 2521/2618 03013KT P6SM SCT050
     FM252300 11006KT P6SM SCT150
     FM260300 10006KT P6SM BKN120
     FM261300 13008KT P6SM BKN150
     FM261500 14011G20KT P6SM BKN040=

USA.gov is the U.S. government's official web portal to all federal, state and local government web resources and services.